createdAt,value
2022-08-17T00:00:06.860Z,16.90
2022-08-17T00:03:02.727Z,16.80
2022-08-17T00:05:38.630Z,16.80
2022-08-17T00:08:06.570Z,16.70
2022-08-17T00:10:34.366Z,16.70
2022-08-17T00:13:07.025Z,16.70
2022-08-17T00:15:34.707Z,16.60
2022-08-17T00:18:02.268Z,16.60
2022-08-17T00:20:34.849Z,16.60
2022-08-17T00:23:08.636Z,16.60
2022-08-17T00:25:36.530Z,16.60
2022-08-17T00:28:04.259Z,16.50
2022-08-17T00:30:50.784Z,16.50
2022-08-17T00:33:24.267Z,16.50
2022-08-17T00:35:53.726Z,16.40
2022-08-17T00:38:22.337Z,16.40
2022-08-17T00:40:59.149Z,16.40
2022-08-17T00:43:46.423Z,16.50
2022-08-17T00:46:24.616Z,16.50
2022-08-17T00:48:52.989Z,16.50
2022-08-17T00:51:52.208Z,16.50
2022-08-17T00:54:33.257Z,16.50
2022-08-17T00:57:22.924Z,16.40
2022-08-17T01:00:02.267Z,16.40
2022-08-17T01:02:42.388Z,16.40
2022-08-17T01:05:23.498Z,16.40
2022-08-17T01:07:53.749Z,16.30
2022-08-17T01:11:00.084Z,16.30
2022-08-17T01:13:15.403Z,16.20
2022-08-17T01:15:50.411Z,16.30
2022-08-17T01:18:17.997Z,16.30
2022-08-17T01:20:53.958Z,16.20
2022-08-17T01:23:25.571Z,16.10
2022-08-17T01:25:55.839Z,16.10
2022-08-17T01:28:33.532Z,16.10
2022-08-17T01:31:13.174Z,16.30
2022-08-17T01:33:41.599Z,16.10
2022-08-17T01:36:09.566Z,16.10
2022-08-17T01:38:38.400Z,16.10
2022-08-17T01:41:13.822Z,16.10
2022-08-17T01:43:50.779Z,16.00
2022-08-17T01:46:24.895Z,15.80
2022-08-17T01:48:53.038Z,15.80
2022-08-17T01:51:21.660Z,15.80
2022-08-17T01:53:55.353Z,15.70
2022-08-17T01:56:26.262Z,15.80
2022-08-17T01:58:54.309Z,15.90
2022-08-17T02:01:24.944Z,15.80
2022-08-17T02:04:01.215Z,15.80
2022-08-17T02:06:47.125Z,15.80
2022-08-17T02:09:25.677Z,15.80
2022-08-17T02:11:55.104Z,15.90
2022-08-17T02:14:25.021Z,15.70
2022-08-17T02:16:53.795Z,15.60
2022-08-17T02:19:21.908Z,15.60
2022-08-17T02:21:52.722Z,15.60
2022-08-17T02:25:00.689Z,15.60
2022-08-17T02:27:19.145Z,15.70
2022-08-17T02:29:46.639Z,15.70
2022-08-17T02:32:27.626Z,15.60
2022-08-17T02:35:00.137Z,15.60
2022-08-17T02:37:29.887Z,15.70
2022-08-17T02:39:58.700Z,15.70
2022-08-17T02:42:38.887Z,15.60
2022-08-17T02:45:11.074Z,15.70
2022-08-17T02:47:40.091Z,15.70
2022-08-17T02:50:09.982Z,15.70
2022-08-17T02:52:43.650Z,15.70
2022-08-17T02:55:18.731Z,15.70
2022-08-17T02:57:46.651Z,15.80
2022-08-17T03:00:22.372Z,15.80
2022-08-17T03:02:50.643Z,15.90
2022-08-17T03:05:21.334Z,15.90
2022-08-17T03:07:49.148Z,15.90
2022-08-17T03:10:17.248Z,15.80
2022-08-17T03:12:46.928Z,15.80
2022-08-17T03:15:18.240Z,15.80
2022-08-17T03:17:46.122Z,15.80
2022-08-17T03:20:14.348Z,15.70
2022-08-17T03:22:53.344Z,15.80
2022-08-17T03:25:27.333Z,15.80
2022-08-17T03:27:56.967Z,15.80
2022-08-17T03:30:26.599Z,15.70
2022-08-17T03:32:56.314Z,15.70
2022-08-17T03:35:27.226Z,15.60
2022-08-17T03:38:00.861Z,15.60
2022-08-17T03:40:55.008Z,15.60
2022-08-17T03:43:18.711Z,15.60
2022-08-17T03:46:04.926Z,15.60
2022-08-17T03:48:56.913Z,15.50
2022-08-17T03:51:44.024Z,15.50
2022-08-17T03:54:31.042Z,15.40
2022-08-17T03:57:06.495Z,15.40
2022-08-17T03:59:36.052Z,15.40
2022-08-17T04:02:18.171Z,15.40
2022-08-17T04:04:45.765Z,15.40
2022-08-17T04:07:13.774Z,15.40
2022-08-17T04:09:42.872Z,15.40
2022-08-17T04:12:10.515Z,15.40
2022-08-17T04:14:51.675Z,15.40
2022-08-17T04:17:29.696Z,15.40
2022-08-17T04:19:57.513Z,15.40
2022-08-17T04:22:30.531Z,15.30
2022-08-17T04:25:06.265Z,15.30
2022-08-17T04:27:34.610Z,15.20
2022-08-17T04:30:03.758Z,15.20
2022-08-17T04:33:00.470Z,15.20
2022-08-17T04:35:21.143Z,15.20
2022-08-17T04:37:48.641Z,15.20
2022-08-17T04:40:36.148Z,15.20
2022-08-17T04:43:15.840Z,15.10
2022-08-17T04:45:56.895Z,15.20
2022-08-17T04:48:35.516Z,15.20
2022-08-17T04:51:07.414Z,15.20
2022-08-17T04:53:35.192Z,15.30
2022-08-17T04:56:03.507Z,15.40
2022-08-17T04:58:30.892Z,15.50
2022-08-17T05:00:58.327Z,15.60
2022-08-17T05:03:25.847Z,15.70
2022-08-17T05:05:53.685Z,15.80
2022-08-17T05:08:24.906Z,15.80
2022-08-17T05:10:53.158Z,15.90
2022-08-17T05:13:26.629Z,16.10
2022-08-17T05:15:57.295Z,16.20
2022-08-17T05:18:25.492Z,16.30
2022-08-17T05:20:53.312Z,16.30
2022-08-17T05:23:23.684Z,16.40
2022-08-17T05:25:55.697Z,16.50
2022-08-17T05:28:27.580Z,16.50
2022-08-17T05:30:59.462Z,16.50
2022-08-17T05:33:31.905Z,16.50
2022-08-17T05:36:00.616Z,16.60
2022-08-17T05:38:29.832Z,16.70
2022-08-17T05:40:58.256Z,16.80
2022-08-17T05:43:32.729Z,16.80
2022-08-17T05:46:18.548Z,16.90
2022-08-17T05:49:08.084Z,17.00
2022-08-17T05:51:59.168Z,17.10
2022-08-17T05:54:49.037Z,17.30
2022-08-17T05:57:39.604Z,17.40
2022-08-17T06:00:20.600Z,17.60
2022-08-17T06:03:07.166Z,17.70
2022-08-17T06:05:49.339Z,18.00
2022-08-17T06:08:48.048Z,18.20
2022-08-17T06:11:32.449Z,18.40
2022-08-17T06:14:29.632Z,18.60
2022-08-17T06:17:10.196Z,18.80
2022-08-17T06:19:57.011Z,18.90
2022-08-17T06:22:29.519Z,19.10
2022-08-17T06:25:02.260Z,19.30
2022-08-17T06:27:41.347Z,19.50
2022-08-17T06:30:16.042Z,19.70
2022-08-17T06:32:52.045Z,19.90
2022-08-17T06:35:34.274Z,20.10
2022-08-17T06:38:38.458Z,20.20
2022-08-17T06:41:24.415Z,20.40
2022-08-17T06:44:50.063Z,20.80
2022-08-17T06:47:37.114Z,21.20
2022-08-17T06:50:17.126Z,22.00
2022-08-17T06:53:00.801Z,22.50
2022-08-17T06:56:03.221Z,23.20
2022-08-17T06:58:33.694Z,24.30
2022-08-17T07:01:14.803Z,25.00
2022-08-17T07:04:11.892Z,25.80
2022-08-17T07:06:47.897Z,26.50
2022-08-17T07:09:29.243Z,26.80
2022-08-17T07:12:02.529Z,27.30
2022-08-17T07:14:40.981Z,27.70
2022-08-17T07:17:17.249Z,28.00
2022-08-17T07:19:47.578Z,28.40
2022-08-17T07:22:30.422Z,28.70
2022-08-17T07:25:20.938Z,28.80
2022-08-17T07:27:55.783Z,28.50
2022-08-17T07:30:31.504Z,28.30
2022-08-17T07:33:20.136Z,28.50
2022-08-17T07:35:49.788Z,29.20
2022-08-17T07:38:25.068Z,29.80
2022-08-17T07:41:04.140Z,30.30
2022-08-17T07:43:39.744Z,30.60
2022-08-17T07:46:40.429Z,30.50
2022-08-17T07:49:11.131Z,30.30
2022-08-17T07:51:48.003Z,29.80
2022-08-17T07:54:42.263Z,29.70
2022-08-17T07:57:12.789Z,30.10
2022-08-17T07:59:43.441Z,30.60
2022-08-17T08:02:17.100Z,30.90
2022-08-17T08:05:00.102Z,31.20
2022-08-17T08:07:50.328Z,31.60
2022-08-17T08:10:29.868Z,32.10
2022-08-17T08:13:06.287Z,32.60
2022-08-17T08:15:53.605Z,32.80
2022-08-17T08:18:54.605Z,33.00
2022-08-17T08:21:36.788Z,32.90
2022-08-17T08:24:30.909Z,33.10
2022-08-17T08:27:17.454Z,33.60
2022-08-17T08:30:06.894Z,34.30
2022-08-17T08:32:57.534Z,35.00
2022-08-17T08:35:37.236Z,36.00
2022-08-17T08:38:23.671Z,36.90
2022-08-17T08:41:10.571Z,37.60
2022-08-17T08:44:22.062Z,38.10
2022-08-17T08:47:35.566Z,39.10
2022-08-17T08:50:37.506Z,40.00
2022-08-17T08:53:23.579Z,40.50
2022-08-17T08:55:53.999Z,41.20
2022-08-17T08:58:41.778Z,41.50
2022-08-17T09:01:23.799Z,41.50
2022-08-17T09:04:18.306Z,42.30
2022-08-17T09:06:56.456Z,43.10
2022-08-17T09:09:58.994Z,43.30
2022-08-17T09:12:41.611Z,43.40
2022-08-17T09:15:25.576Z,43.50
2022-08-17T09:19:02.699Z,43.90
2022-08-17T09:20:59.983Z,44.20
2022-08-17T09:23:42.362Z,44.10
2022-08-17T09:26:37.759Z,44.40
2022-08-17T09:29:09.976Z,44.70
2022-08-17T09:31:52.525Z,45.10
2022-08-17T09:34:33.242Z,45.40
2022-08-17T09:37:21.971Z,44.80
2022-08-17T09:40:13.733Z,44.80
2022-08-17T09:42:52.586Z,44.60
2022-08-17T09:45:49.409Z,44.00
2022-08-17T09:48:44.001Z,44.10
2022-08-17T09:51:26.903Z,44.30
2022-08-17T09:53:55.324Z,45.50
2022-08-17T09:56:29.447Z,46.40
2022-08-17T09:59:16.861Z,46.70
2022-08-17T10:01:51.073Z,47.10
2022-08-17T10:04:47.004Z,47.20
2022-08-17T10:07:31.363Z,46.90
2022-08-17T10:10:29.719Z,46.80
2022-08-17T10:13:15.302Z,46.70
2022-08-17T10:15:54.425Z,46.90
2022-08-17T10:18:43.609Z,47.10
2022-08-17T10:21:33.518Z,47.10
2022-08-17T10:25:21.247Z,46.70
2022-08-17T10:27:52.482Z,45.40
2022-08-17T10:30:25.021Z,44.70
2022-08-17T10:32:57.543Z,44.60
2022-08-17T10:35:57.194Z,44.00
2022-08-17T10:38:48.120Z,42.90
2022-08-17T10:41:24.403Z,42.10
2022-08-17T10:44:38.043Z,41.10
2022-08-17T10:47:09.723Z,41.30
2022-08-17T10:49:53.721Z,41.40
2022-08-17T10:52:26.206Z,41.10
2022-08-17T10:54:58.171Z,41.60
2022-08-17T10:57:27.296Z,42.40
2022-08-17T10:59:56.998Z,42.00
2022-08-17T11:02:50.012Z,42.50
2022-08-17T11:05:44.099Z,42.60
2022-08-17T11:08:28.991Z,42.40
2022-08-17T11:11:17.647Z,42.20
2022-08-17T11:14:08.611Z,41.50
2022-08-17T11:17:18.794Z,41.80
2022-08-17T11:20:18.758Z,42.20
2022-08-17T11:23:07.711Z,41.60
2022-08-17T11:25:52.036Z,41.50
2022-08-17T11:28:24.519Z,41.60
2022-08-17T11:30:56.221Z,40.90
2022-08-17T11:33:29.635Z,40.00
2022-08-17T11:36:06.494Z,39.10
2022-08-17T11:38:51.024Z,38.60
2022-08-17T11:41:46.095Z,38.20
2022-08-17T11:44:38.762Z,37.70
2022-08-17T11:47:36.824Z,37.30
2022-08-17T11:50:54.117Z,37.00
2022-08-17T11:54:08.643Z,36.40
2022-08-17T11:56:52.594Z,36.50
2022-08-17T11:59:45.271Z,36.20
2022-08-17T12:02:32.888Z,35.80
2022-08-17T12:05:25.300Z,36.00
2022-08-17T12:07:56.447Z,36.20
2022-08-17T12:10:31.765Z,36.00
2022-08-17T12:13:06.695Z,36.10
2022-08-17T12:15:40.728Z,35.90
2022-08-17T12:18:08.776Z,35.80
2022-08-17T12:20:40.828Z,36.10
2022-08-17T12:23:28.351Z,36.10
2022-08-17T12:26:17.197Z,36.00
2022-08-17T12:28:47.907Z,35.90
2022-08-17T12:31:37.102Z,35.70
2022-08-17T12:34:05.535Z,35.30
2022-08-17T12:36:33.619Z,35.30
2022-08-17T12:39:12.964Z,35.20
2022-08-17T12:41:46.970Z,35.20
2022-08-17T12:44:21.604Z,35.30
2022-08-17T12:47:04.527Z,35.40
2022-08-17T12:49:39.558Z,35.50
2022-08-17T12:52:32.722Z,35.60
2022-08-17T12:55:21.202Z,35.60
2022-08-17T12:57:54.103Z,35.50
2022-08-17T13:00:41.722Z,35.50
2022-08-17T13:03:19.191Z,35.40
2022-08-17T13:05:53.037Z,35.60
2022-08-17T13:08:35.993Z,35.80
2022-08-17T13:11:18.198Z,35.80
2022-08-17T13:13:51.651Z,35.40
2022-08-17T13:16:22.591Z,35.10
2022-08-17T13:18:53.425Z,34.70
2022-08-17T13:21:26.541Z,34.70
2022-08-17T13:24:05.884Z,34.50
2022-08-17T13:26:37.904Z,34.20
2022-08-17T13:29:28.753Z,34.30
2022-08-17T13:32:13.372Z,34.10
2022-08-17T13:35:13.052Z,34.10
2022-08-17T13:37:57.608Z,33.90
2022-08-17T13:40:32.166Z,33.70
2022-08-17T13:42:59.563Z,33.80
2022-08-17T13:45:34.952Z,33.70
2022-08-17T13:48:08.875Z,33.50
2022-08-17T13:50:56.924Z,33.30
2022-08-17T13:53:52.794Z,33.20
2022-08-17T13:56:37.468Z,33.10
2022-08-17T13:59:14.439Z,33.10
2022-08-17T14:01:53.911Z,33.10
2022-08-17T14:04:32.576Z,33.00
2022-08-17T14:07:22.630Z,33.20
2022-08-17T14:10:01.202Z,33.40
2022-08-17T14:12:32.230Z,33.70
2022-08-17T14:14:59.845Z,33.90
2022-08-17T14:17:36.352Z,34.20
2022-08-17T14:20:20.248Z,34.70
2022-08-17T14:22:53.844Z,36.30
2022-08-17T14:25:29.349Z,38.00
2022-08-17T14:27:57.875Z,39.30
2022-08-17T14:30:29.798Z,40.40
2022-08-17T14:32:59.173Z,41.30
2022-08-17T14:35:28.330Z,41.70
2022-08-17T14:38:02.085Z,41.00
2022-08-17T14:40:29.991Z,40.40
2022-08-17T14:42:59.554Z,40.10
2022-08-17T14:45:32.838Z,39.10
2022-08-17T14:48:07.684Z,39.30
2022-08-17T14:50:38.300Z,39.70
2022-08-17T14:53:08.253Z,39.80
2022-08-17T14:55:40.206Z,39.80
2022-08-17T14:58:08.997Z,40.50
2022-08-17T15:00:37.497Z,40.50
2022-08-17T15:03:05.351Z,40.80
2022-08-17T15:05:36.613Z,40.80
2022-08-17T15:08:05.459Z,40.70
2022-08-17T15:10:33.195Z,41.00
2022-08-17T15:13:00.744Z,40.90
2022-08-17T15:15:29.319Z,41.00
2022-08-17T15:17:59.609Z,40.90
2022-08-17T15:20:29.732Z,40.80
2022-08-17T15:22:58.915Z,40.10
2022-08-17T15:25:29.366Z,39.30
2022-08-17T15:27:56.983Z,38.50
2022-08-17T15:30:26.485Z,37.70
2022-08-17T15:32:56.543Z,37.10
2022-08-17T15:35:28.910Z,36.60
2022-08-17T15:38:04.702Z,36.20
2022-08-17T15:40:38.100Z,35.80
2022-08-17T15:43:11.547Z,35.30
2022-08-17T15:45:40.464Z,35.40
2022-08-17T15:48:09.189Z,35.10
2022-08-17T15:50:37.918Z,34.90
2022-08-17T15:53:05.361Z,34.70
2022-08-17T15:55:33.356Z,34.50
2022-08-17T15:58:01.755Z,34.30
2022-08-17T16:00:29.534Z,34.10
2022-08-17T16:03:46.298Z,34.10
2022-08-17T16:05:47.312Z,34.10
2022-08-17T16:08:20.860Z,34.10
2022-08-17T16:10:51.902Z,34.00
2022-08-17T16:13:19.604Z,34.00
2022-08-17T16:15:57.179Z,33.80
2022-08-17T16:18:31.779Z,33.80
2022-08-17T16:21:27.525Z,33.50
2022-08-17T16:23:59.496Z,33.40
2022-08-17T16:26:28.399Z,33.20
2022-08-17T16:28:59.970Z,33.10
2022-08-17T16:31:29.791Z,33.10
2022-08-17T16:34:16.400Z,32.90
2022-08-17T16:36:51.878Z,32.60
2022-08-17T16:39:26.866Z,32.30
2022-08-17T16:41:55.896Z,32.20
2022-08-17T16:44:23.810Z,32.10
2022-08-17T16:46:51.537Z,32.10
2022-08-17T16:49:35.841Z,32.10
2022-08-17T16:52:12.594Z,31.90
2022-08-17T16:54:43.606Z,31.80
2022-08-17T16:57:17.477Z,31.90
2022-08-17T16:59:50.186Z,31.80
2022-08-17T17:02:34.372Z,31.90
2022-08-17T17:05:39.442Z,32.00
2022-08-17T17:08:19.505Z,32.00
2022-08-17T17:10:50.990Z,31.60
2022-08-17T17:13:32.578Z,31.40
2022-08-17T17:16:03.479Z,31.10
2022-08-17T17:18:42.987Z,30.80
2022-08-17T17:21:14.073Z,30.60
2022-08-17T17:23:47.304Z,30.30
2022-08-17T17:26:43.767Z,30.00
2022-08-17T17:29:18.345Z,29.60
2022-08-17T17:32:03.060Z,29.40
2022-08-17T17:34:34.424Z,29.20
2022-08-17T17:37:15.815Z,29.10
2022-08-17T17:40:12.436Z,28.90
2022-08-17T17:42:41.868Z,28.60
2022-08-17T17:45:26.154Z,28.30
2022-08-17T17:47:53.735Z,28.20
2022-08-17T17:50:42.379Z,28.10
2022-08-17T17:53:34.876Z,27.90
2022-08-17T17:56:43.648Z,27.70
2022-08-17T17:59:32.672Z,27.60
2022-08-17T18:02:42.097Z,27.40
2022-08-17T18:05:34.954Z,27.20
2022-08-17T18:08:34.878Z,26.80
2022-08-17T18:11:24.698Z,26.50
2022-08-17T18:14:10.915Z,26.20
2022-08-17T18:16:42.670Z,25.60
2022-08-17T18:19:19.995Z,25.10
2022-08-17T18:21:52.646Z,21.80
2022-08-17T18:24:35.647Z,20.30
2022-08-17T18:27:31.052Z,19.20
2022-08-17T18:30:07.161Z,18.40
2022-08-17T18:32:43.444Z,18.20
2022-08-17T18:35:16.252Z,18.00
2022-08-17T18:37:48.209Z,18.00
2022-08-17T18:40:21.595Z,18.10
2022-08-17T18:43:02.779Z,18.20
2022-08-17T18:45:47.338Z,18.20
2022-08-17T18:48:28.154Z,18.30
2022-08-17T18:51:00.288Z,18.50
2022-08-17T18:53:34.551Z,18.60
2022-08-17T18:56:21.846Z,18.60
2022-08-17T18:58:59.474Z,18.60
2022-08-17T19:02:05.150Z,18.60
2022-08-17T19:04:41.616Z,18.50
2022-08-17T19:07:27.436Z,18.50
2022-08-17T19:09:54.746Z,18.50
2022-08-17T19:12:28.794Z,18.50
2022-08-17T19:14:59.288Z,18.40
2022-08-17T19:17:49.086Z,18.50
2022-08-17T19:20:19.632Z,18.60
2022-08-17T19:23:54.172Z,18.60
2022-08-17T19:26:53.690Z,18.50
2022-08-17T19:29:22.573Z,18.40
2022-08-17T19:31:50.186Z,18.50
2022-08-17T19:34:33.428Z,18.50
2022-08-17T19:37:30.107Z,18.50
2022-08-17T19:39:58.290Z,18.50
2022-08-17T19:42:52.505Z,18.60
2022-08-17T19:45:59.211Z,18.60
2022-08-17T19:48:39.899Z,18.60
2022-08-17T19:51:28.748Z,18.70
2022-08-17T19:54:18.232Z,18.70
2022-08-17T19:57:18.964Z,18.80
2022-08-17T20:00:03.865Z,18.80
2022-08-17T20:02:50.026Z,18.80
2022-08-17T20:05:44.226Z,18.80
2022-08-17T20:08:55.165Z,18.80
2022-08-17T20:11:42.056Z,18.80
2022-08-17T20:14:16.127Z,18.80
2022-08-17T20:16:44.406Z,18.80
2022-08-17T20:19:31.521Z,18.80
2022-08-17T20:22:03.287Z,18.80
2022-08-17T20:25:00.014Z,18.80
2022-08-17T20:27:33.102Z,18.80
2022-08-17T20:30:37.623Z,18.80
2022-08-17T20:33:09.043Z,18.80
2022-08-17T20:36:19.878Z,18.80
2022-08-17T20:38:57.601Z,18.70
2022-08-17T20:41:28.344Z,18.70
2022-08-17T20:43:59.102Z,18.70
2022-08-17T20:46:38.762Z,18.60
2022-08-17T20:49:47.175Z,18.70
2022-08-17T20:52:35.565Z,18.60
2022-08-17T20:55:04.374Z,18.70
2022-08-17T20:57:32.059Z,18.70
2022-08-17T21:00:17.218Z,18.60
2022-08-17T21:03:23.338Z,18.60
2022-08-17T21:06:16.790Z,18.60
2022-08-17T21:09:16.095Z,18.70
2022-08-17T21:12:03.909Z,18.70
2022-08-17T21:14:56.375Z,18.70
2022-08-17T21:17:42.203Z,18.70
2022-08-17T21:20:34.628Z,18.70
2022-08-17T21:23:36.004Z,18.70
2022-08-17T21:26:09.682Z,18.70
2022-08-17T21:29:30.349Z,18.70
2022-08-17T21:32:15.860Z,18.70
2022-08-17T21:35:08.246Z,18.70
2022-08-17T21:37:40.909Z,18.70
2022-08-17T21:40:11.254Z,18.60
2022-08-17T21:42:47.626Z,18.60
2022-08-17T21:45:25.974Z,18.60
2022-08-17T21:48:13.841Z,18.60
2022-08-17T21:50:44.508Z,18.50
2022-08-17T21:53:21.773Z,18.50
2022-08-17T21:55:50.294Z,18.40
2022-08-17T21:58:40.109Z,18.40
2022-08-17T22:01:21.673Z,18.50
2022-08-17T22:04:16.516Z,18.40
2022-08-17T22:06:56.789Z,18.50
2022-08-17T22:09:33.472Z,18.40
2022-08-17T22:12:05.783Z,18.40
2022-08-17T22:14:52.506Z,18.40
2022-08-17T22:17:26.366Z,18.40
2022-08-17T22:20:16.747Z,18.30
2022-08-17T22:23:08.540Z,18.20
2022-08-17T22:25:40.575Z,18.00
2022-08-17T22:28:11.650Z,18.00
2022-08-17T22:30:57.985Z,17.90
2022-08-17T22:33:31.236Z,17.90
2022-08-17T22:36:24.615Z,17.80
2022-08-17T22:38:58.293Z,17.70
2022-08-17T22:41:34.705Z,17.70
2022-08-17T22:44:17.235Z,17.60
2022-08-17T22:46:53.205Z,17.60
2022-08-17T22:49:38.449Z,17.50
2022-08-17T22:52:32.359Z,17.50
2022-08-17T22:55:33.057Z,17.50
2022-08-17T22:58:20.274Z,17.50
2022-08-17T23:00:49.537Z,17.40
2022-08-17T23:03:26.005Z,17.30
2022-08-17T23:06:08.753Z,17.30
2022-08-17T23:09:05.370Z,17.20
2022-08-17T23:11:50.031Z,17.10
2022-08-17T23:14:20.420Z,17.10
2022-08-17T23:16:50.286Z,17.20
2022-08-17T23:19:20.784Z,17.10
2022-08-17T23:21:52.557Z,17.20
2022-08-17T23:24:23.879Z,17.40
2022-08-17T23:26:51.515Z,17.30
2022-08-17T23:29:21.478Z,17.40
2022-08-17T23:31:51.010Z,17.30
2022-08-17T23:34:19.194Z,17.20
2022-08-17T23:36:52.376Z,17.30
2022-08-17T23:39:27.675Z,17.20
2022-08-17T23:42:00.266Z,17.20
2022-08-17T23:44:28.777Z,17.20
2022-08-17T23:46:56.779Z,17.30
2022-08-17T23:49:25.077Z,17.20
2022-08-17T23:51:54.633Z,17.30
2022-08-17T23:54:25.385Z,17.20
2022-08-17T23:56:52.849Z,17.20
2022-08-17T23:59:22.815Z,17.20
